Empire State — WDE4431 — position and weather

sailwx.info

Track history (hours):
 
Tides and Currents Weather Stations Pressure Air Temp Water Temp Dewpoint Dewpoint Depression Visibility Wind Speed Wind Dir Waves Ship Positions

Empire State

Owner: Crowley Petroleum Services, Jacksonville, FL. More information available from US FCC via Universal Licensing System and Coast Guard Vessel Documentation Center.

Last reported at 2015-Mar-07 03:31 UTC. Time now 2015-Mar-07 04:25 UTC.
Position N 33°40' W 118°09'.

Length 183 m; draft 10 m.

Type: Military. MMSI: 367353080.

Date/timePositionNaut miles runAvg speedWind from/ knotsBaromVisibWave heightAir tempDewpointWater temp
2015-Mar-07 03:31N 33°40' W 118°09'0 0.0
2015-Mar-07 02:31N 33°40' W 118°09'0 0.0
2015-Mar-07 01:31N 33°40' W 118°09'0 0.1
2015-Mar-07 00:29N 33°40' W 118°09'5 5.2
2015-Mar-06 23:33N 33°38' W 118°14'6011.7
2015-Mar-06 18:27N 33°37' W 119°25'9213.3
2015-Mar-06 11:33N 33°53' W 121°14'4113.5
2015-Mar-06 08:33N 34°18' W 121°53'6813.7
2015-Mar-06 03:33N 34°60' W 122°58'1613.6
2015-Mar-06 02:23N 35°15' W 123°04'9513.8
2015-Mar-05 19:33N 36°47' W 123°29'2612.7
2015-Mar-05 17:31N 37°12' W 123°20'1313.8
2015-Mar-05 16:33N 37°23' W 123°12'1212.0
2015-Mar-05 15:33N 37°34' W 123°04'1111.3
2015-Mar-05 14:33N 37°40' W 122°52'1110.6
2015-Mar-05 13:34N 37°46' W 122°41'1212.2
2015-Mar-05 12:33N 37°51' W 122°27'9 9.0
2015-Mar-05 11:33N 37°59' W 122°25'9 8.8
2015-Mar-05 10:33N 38°04' W 122°16'1 0.1
2015-Mar-05 02:13N 38°04' W 122°15'0 0.0
2015-Mar-05 01:07N 38°04' W 122°15'0 0.0
2015-Mar-05 00:19N 38°04' W 122°15'0 0.0
2015-Mar-04 19:31N 38°04' W 122°15'0 0.0
2015-Mar-04 18:25N 38°04' W 122°15'0 0.0
2015-Mar-04 15:31N 38°04' W 122°15'0 0.0
2015-Mar-04 11:07N 38°04' W 122°15'0 0.0
2015-Mar-04 10:07N 38°04' W 122°15'0 0.0
2015-Mar-04 09:13N 38°04' W 122°15'0 0.0
2015-Mar-04 08:25N 38°04' W 122°15'0 0.0
2015-Mar-04 06:19N 38°04' W 122°15'0 0.0
2015-Mar-04 05:31N 38°04' W 122°15'0 0.0
2015-Mar-04 04:31N 38°04' W 122°15'0 0.0
2015-Mar-04 03:31N 38°04' W 122°15'0 0.0
2015-Mar-04 02:31N 38°04' W 122°15'0 0.0
2015-Mar-03 03:04N 38°04' W 122°15'2 4.3
2015-Mar-03 02:33N 38°03' W 122°17'1110.5
2015-Mar-03 01:33N 37°56' W 122°27'9 9.2
2015-Mar-03 00:33N 37°48' W 122°32'1111.0
2015-Mar-02 23:32N 37°42' W 122°44'1111.0
2015-Mar-02 22:33N 37°36' W 122°55'1110.5
2015-Mar-02 21:32N 37°30' W 123°06'23 7.7
2015-Mar-02 18:33N 37°34' W 123°35'11 9.8
2015-Mar-02 17:28N 37°42' W 123°44'9 9.7
2015-Mar-02 16:33N 37°48' W 123°52'10 9.9
2015-Mar-02 15:33N 37°55' W 124°00'11 9.8
2015-Mar-02 14:25N 38°04' W 124°10'1213.0
2015-Mar-02 13:31N 38°12' W 124°20'5714.1
2015-Mar-02 09:26N 39°00' W 125°00'55213.8
2015-Feb-28 17:29N 48°12' W 125°27'1314.0
2015-Feb-28 16:33N 48°21' W 125°13'1413.8
2015-Feb-28 15:33N 48°31' W 124°59'1414.3
2015-Feb-28 14:33N 48°29' W 124°37'1414.5
2015-Feb-28 13:33N 48°23' W 124°17'1515.3
2015-Feb-28 12:33N 48°18' W 123°55'1515.0
2015-Feb-28 11:33N 48°15' W 123°33'9 9.0
2015-Feb-28 10:33N 48°09' W 123°23'1212.0
2015-Feb-28 09:34N 48°13' W 123°06'1413.7
2015-Feb-28 08:32N 48°10' W 122°45'1111.4
2015-Feb-28 07:32N 48°00' W 122°36'1211.8
2015-Feb-28 06:33N 47°50' W 122°27'713.1
2015-Feb-28 06:02N 47°44' W 122°26'612.7
2015-Feb-28 05:33N 47°38' W 122°26'213.1
2015-Feb-28 05:23N 47°37' W 122°23'2 1.8
2015-Feb-28 04:31N 47°36' W 122°21'0 0.0
2015-Feb-28 03:31N 47°36' W 122°21'0 0.1
2015-Feb-28 02:31N 47°36' W 122°21'0 0.1
2015-Feb-28 01:57N 47°36' W 122°21'0 0.0
2015-Feb-28 01:31N 47°36' W 122°21'0 0.0
2015-Feb-28 00:25N 47°36' W 122°21'0 0.1
2015-Feb-27 23:39N 47°36' W 122°21'0 0.0
2015-Feb-27 23:28N 47°36' W 122°21'0 0.0
2015-Feb-27 22:31N 47°36' W 122°21'0 0.1
2015-Feb-27 21:55N 47°36' W 122°21'1 1.4
2015-Feb-27 21:33N 47°36' W 122°22'0 4.0
2015-Feb-27 21:29N 47°36' W 122°22'7 7.4
2015-Feb-27 20:32N 47°34' W 122°32'0 0.0
2015-Feb-27 19:33N 47°34' W 122°32'0 0.0
2015-Feb-27 18:33N 47°34' W 122°32'0 0.0
2015-Feb-27 17:33N 47°34' W 122°32'0 0.0
2015-Feb-27 16:33N 47°34' W 122°32'0 0.0
2015-Feb-27 15:33N 47°34' W 122°32'0 0.0
2015-Feb-27 14:34N 47°34' W 122°32'0 0.0
2015-Feb-27 13:33N 47°34' W 122°32'0 0.0
2015-Feb-27 12:33N 47°34' W 122°32'0 0.0
2015-Feb-27 10:19N 47°34' W 122°32'0 0.0
2015-Feb-27 09:33N 47°34' W 122°32'0 0.0
2015-Feb-27 08:27N 47°34' W 122°32'0 0.0
2015-Feb-27 07:31N 47°34' W 122°32'0 0.0
2015-Feb-27 06:33N 47°34' W 122°32'0 0.0
2015-Feb-27 05:33N 47°34' W 122°32'0 0.0
2015-Feb-27 04:34N 47°34' W 122°32'0 0.0
2015-Feb-27 03:33N 47°34' W 122°32'0 0.0
2015-Feb-27 02:33N 47°34' W 122°32'0 0.0
2015-Feb-27 01:33N 47°34' W 122°32'0 0.0
2015-Feb-27 00:48N 47°34' W 122°32'0 0.0
2015-Feb-27 00:34N 47°34' W 122°32'0 0.0
2015-Feb-26 23:33N 47°34' W 122°32'0 0.0
2015-Feb-26 22:34N 47°34' W 122°32'0 0.0
2015-Feb-26 21:30N 47°34' W 122°32'0 0.0
2015-Feb-26 20:33N 47°34' W 122°32'0 0.0
2015-Feb-26 20:33N 47°34' W 122°32'0 0.0
2015-Feb-26 19:34N 47°34' W 122°32'0 0.0
2015-Feb-26 18:48N 47°34' W 122°32'0 0.0
2015-Feb-26 18:33N 47°34' W 122°32'0 0.0
2015-Feb-26 17:30N 47°34' W 122°32'0 0.0
2015-Feb-26 16:34N 47°34' W 122°32'0 0.0
2015-Feb-26 15:33N 47°34' W 122°32'0 0.0
2015-Feb-26 14:34N 47°34' W 122°32'0 0.0
2015-Feb-26 13:34N 47°34' W 122°32'0 0.0
2015-Feb-26 12:33N 47°34' W 122°32'0 0.0
2015-Feb-26 11:33N 47°34' W 122°32'0 0.0
2015-Feb-26 10:33N 47°34' W 122°32'0 0.0
2015-Feb-26 09:30N 47°34' W 122°32'0 0.0
2015-Feb-26 08:33N 47°34' W 122°32'0 0.0
2015-Feb-26 07:33N 47°34' W 122°32'0 0.0
2015-Feb-26 06:33N 47°34' W 122°32'0 0.0
2015-Feb-26 05:33N 47°34' W 122°32'0 0.0
2015-Feb-26 05:18N 47°34' W 122°32'0 0.0
2015-Feb-26 04:31N 47°34' W 122°32'0 0.0
2015-Feb-26 04:12N 47°34' W 122°32'0 0.0
2015-Feb-26 03:33N 47°34' W 122°32'0 0.0
2015-Feb-26 02:33N 47°34' W 122°32'0 0.1
2015-Feb-26 01:33N 47°34' W 122°32'3 3.7
2015-Feb-26 00:43N 47°35' W 122°28'1 7.7
2015-Feb-26 00:33N 47°36' W 122°28'018.6
2015-Feb-26 00:33N 47°36' W 122°28'1111.2
2015-Feb-25 23:33N 47°47' W 122°27'010.7
2015-Feb-25 23:32N 47°48' W 122°27'1010.5
2015-Feb-25 22:33N 47°57' W 122°33'1 9.8
2015-Feb-25 22:27N 47°58' W 122°35'8 8.7
2015-Feb-25 21:32N 48°05' W 122°40'3 7.9
2015-Feb-25 21:06N 48°08' W 122°42'4 8.0
2015-Feb-25 20:33N 48°11' W 122°47'1110.9
2015-Feb-25 19:33N 48°22' W 122°46'1211.7
2015-Feb-25 18:33N 48°33' W 122°45'10 9.7
2015-Feb-25 17:33N 48°43' W 122°45'9 8.7
2015-Feb-25 16:34N 48°52' W 122°46'0 0.2
2015-Feb-25 15:32N 48°52' W 122°46'  
Track history (hours):
 
Tides and Currents Weather Stations Pressure Air Temp Water Temp Dewpoint Dewpoint Depression Visibility Wind Speed Wind Dir Waves Ship Positions

Empire State

Owner: Crowley Petroleum Services, Jacksonville, FL. More information available from US FCC via Universal Licensing System and Coast Guard Vessel Documentation Center.

Last reported at 2015-Mar-07 03:31 UTC. Time now 2015-Mar-07 04:25 UTC.
Position N 33°40' W 118°09'.

Length 183 m; draft 10 m.

Type: Military. MMSI: 367353080.

Date/timePositionNaut miles runAvg speedWind from/ knotsBaromVisibWave heightAir tempDewpointWater temp
2015-Mar-07 03:31N 33°40' W 118°09'0 0.0
2015-Mar-07 02:31N 33°40' W 118°09'0 0.0
2015-Mar-07 01:31N 33°40' W 118°09'0 0.1
2015-Mar-07 00:29N 33°40' W 118°09'5 5.2
2015-Mar-06 23:33N 33°38' W 118°14'6011.7
2015-Mar-06 18:27N 33°37' W 119°25'9213.3
2015-Mar-06 11:33N 33°53' W 121°14'4113.5
2015-Mar-06 08:33N 34°18' W 121°53'6813.7
2015-Mar-06 03:33N 34°60' W 122°58'1613.6
2015-Mar-06 02:23N 35°15' W 123°04'9513.8
2015-Mar-05 19:33N 36°47' W 123°29'2612.7
2015-Mar-05 17:31N 37°12' W 123°20'1313.8
2015-Mar-05 16:33N 37°23' W 123°12'1212.0
2015-Mar-05 15:33N 37°34' W 123°04'1111.3
2015-Mar-05 14:33N 37°40' W 122°52'1110.6
2015-Mar-05 13:34N 37°46' W 122°41'1212.2
2015-Mar-05 12:33N 37°51' W 122°27'9 9.0
2015-Mar-05 11:33N 37°59' W 122°25'9 8.8
2015-Mar-05 10:33N 38°04' W 122°16'1 0.1
2015-Mar-05 02:13N 38°04' W 122°15'0 0.0
2015-Mar-05 01:07N 38°04' W 122°15'0 0.0
2015-Mar-05 00:19N 38°04' W 122°15'0 0.0
2015-Mar-04 19:31N 38°04' W 122°15'0 0.0
2015-Mar-04 18:25N 38°04' W 122°15'0 0.0
2015-Mar-04 15:31N 38°04' W 122°15'0 0.0
2015-Mar-04 11:07N 38°04' W 122°15'0 0.0
2015-Mar-04 10:07N 38°04' W 122°15'0 0.0
2015-Mar-04 09:13N 38°04' W 122°15'0 0.0
2015-Mar-04 08:25N 38°04' W 122°15'0 0.0
2015-Mar-04 06:19N 38°04' W 122°15'0 0.0
2015-Mar-04 05:31N 38°04' W 122°15'0 0.0
2015-Mar-04 04:31N 38°04' W 122°15'0 0.0
2015-Mar-04 03:31N 38°04' W 122°15'0 0.0
2015-Mar-04 02:31N 38°04' W 122°15'0 0.0
2015-Mar-03 03:04N 38°04' W 122°15'2 4.3
2015-Mar-03 02:33N 38°03' W 122°17'1110.5
2015-Mar-03 01:33N 37°56' W 122°27'9 9.2
2015-Mar-03 00:33N 37°48' W 122°32'1111.0
2015-Mar-02 23:32N 37°42' W 122°44'1111.0
2015-Mar-02 22:33N 37°36' W 122°55'1110.5
2015-Mar-02 21:32N 37°30' W 123°06'23 7.7
2015-Mar-02 18:33N 37°34' W 123°35'11 9.8
2015-Mar-02 17:28N 37°42' W 123°44'9 9.7
2015-Mar-02 16:33N 37°48' W 123°52'10 9.9
2015-Mar-02 15:33N 37°55' W 124°00'11 9.8
2015-Mar-02 14:25N 38°04' W 124°10'1213.0
2015-Mar-02 13:31N 38°12' W 124°20'5714.1
2015-Mar-02 09:26N 39°00' W 125°00'55213.8
2015-Feb-28 17:29N 48°12' W 125°27'1314.0
2015-Feb-28 16:33N 48°21' W 125°13'1413.8
2015-Feb-28 15:33N 48°31' W 124°59'1414.3
2015-Feb-28 14:33N 48°29' W 124°37'1414.5
2015-Feb-28 13:33N 48°23' W 124°17'1515.3
2015-Feb-28 12:33N 48°18' W 123°55'1515.0
2015-Feb-28 11:33N 48°15' W 123°33'9 9.0
2015-Feb-28 10:33N 48°09' W 123°23'1212.0
2015-Feb-28 09:34N 48°13' W 123°06'1413.7
2015-Feb-28 08:32N 48°10' W 122°45'1111.4
2015-Feb-28 07:32N 48°00' W 122°36'1211.8
2015-Feb-28 06:33N 47°50' W 122°27'713.1
2015-Feb-28 06:02N 47°44' W 122°26'612.7
2015-Feb-28 05:33N 47°38' W 122°26'213.1
2015-Feb-28 05:23N 47°37' W 122°23'2 1.8
2015-Feb-28 04:31N 47°36' W 122°21'0 0.0
2015-Feb-28 03:31N 47°36' W 122°21'0 0.1
2015-Feb-28 02:31N 47°36' W 122°21'0 0.1
2015-Feb-28 01:57N 47°36' W 122°21'0 0.0
2015-Feb-28 01:31N 47°36' W 122°21'0 0.0
2015-Feb-28 00:25N 47°36' W 122°21'0 0.1
2015-Feb-27 23:39N 47°36' W 122°21'0 0.0
2015-Feb-27 23:28N 47°36' W 122°21'0 0.0
2015-Feb-27 22:31N 47°36' W 122°21'0 0.1
2015-Feb-27 21:55N 47°36' W 122°21'1 1.4
2015-Feb-27 21:33N 47°36' W 122°22'0 4.0
2015-Feb-27 21:29N 47°36' W 122°22'7 7.4
2015-Feb-27 20:32N 47°34' W 122°32'0 0.0
2015-Feb-27 19:33N 47°34' W 122°32'0 0.0
2015-Feb-27 18:33N 47°34' W 122°32'0 0.0
2015-Feb-27 17:33N 47°34' W 122°32'0 0.0
2015-Feb-27 16:33N 47°34' W 122°32'0 0.0
2015-Feb-27 15:33N 47°34' W 122°32'0 0.0
2015-Feb-27 14:34N 47°34' W 122°32'0 0.0
2015-Feb-27 13:33N 47°34' W 122°32'0 0.0
2015-Feb-27 12:33N 47°34' W 122°32'0 0.0
2015-Feb-27 10:19N 47°34' W 122°32'0 0.0
2015-Feb-27 09:33N 47°34' W 122°32'0 0.0
2015-Feb-27 08:27N 47°34' W 122°32'0 0.0
2015-Feb-27 07:31N 47°34' W 122°32'0 0.0
2015-Feb-27 06:33N 47°34' W 122°32'0 0.0
2015-Feb-27 05:33N 47°34' W 122°32'0 0.0
2015-Feb-27 04:34N 47°34' W 122°32'0 0.0
2015-Feb-27 03:33N 47°34' W 122°32'0 0.0
2015-Feb-27 02:33N 47°34' W 122°32'0 0.0
2015-Feb-27 01:33N 47°34' W 122°32'0 0.0
2015-Feb-27 00:48N 47°34' W 122°32'0 0.0
2015-Feb-27 00:34N 47°34' W 122°32'0 0.0
2015-Feb-26 23:33N 47°34' W 122°32'0 0.0
2015-Feb-26 22:34N 47°34' W 122°32'0 0.0
2015-Feb-26 21:30N 47°34' W 122°32'0 0.0
2015-Feb-26 20:33N 47°34' W 122°32'0 0.0
2015-Feb-26 20:33N 47°34' W 122°32'0 0.0
2015-Feb-26 19:34N 47°34' W 122°32'0 0.0
2015-Feb-26 18:48N 47°34' W 122°32'0 0.0
2015-Feb-26 18:33N 47°34' W 122°32'0 0.0
2015-Feb-26 17:30N 47°34' W 122°32'0 0.0
2015-Feb-26 16:34N 47°34' W 122°32'0 0.0
2015-Feb-26 15:33N 47°34' W 122°32'0 0.0
2015-Feb-26 14:34N 47°34' W 122°32'0 0.0
2015-Feb-26 13:34N 47°34' W 122°32'0 0.0
2015-Feb-26 12:33N 47°34' W 122°32'0 0.0
2015-Feb-26 11:33N 47°34' W 122°32'0 0.0
2015-Feb-26 10:33N 47°34' W 122°32'0 0.0
2015-Feb-26 09:30N 47°34' W 122°32'0 0.0
2015-Feb-26 08:33N 47°34' W 122°32'0 0.0
2015-Feb-26 07:33N 47°34' W 122°32'0 0.0
2015-Feb-26 06:33N 47°34' W 122°32'0 0.0
2015-Feb-26 05:33N 47°34' W 122°32'0 0.0
2015-Feb-26 05:18N 47°34' W 122°32'0 0.0
2015-Feb-26 04:31N 47°34' W 122°32'0 0.0
2015-Feb-26 04:12N 47°34' W 122°32'0 0.0
2015-Feb-26 03:33N 47°34' W 122°32'0 0.0
2015-Feb-26 02:33N 47°34' W 122°32'0 0.1
2015-Feb-26 01:33N 47°34' W 122°32'3 3.7
2015-Feb-26 00:43N 47°35' W 122°28'1 7.7
2015-Feb-26 00:33N 47°36' W 122°28'018.6
2015-Feb-26 00:33N 47°36' W 122°28'1111.2
2015-Feb-25 23:33N 47°47' W 122°27'010.7
2015-Feb-25 23:32N 47°48' W 122°27'1010.5
2015-Feb-25 22:33N 47°57' W 122°33'1 9.8
2015-Feb-25 22:27N 47°58' W 122°35'8 8.7
2015-Feb-25 21:32N 48°05' W 122°40'3 7.9
2015-Feb-25 21:06N 48°08' W 122°42'4 8.0
2015-Feb-25 20:33N 48°11' W 122°47'1110.9
2015-Feb-25 19:33N 48°22' W 122°46'1211.7
2015-Feb-25 18:33N 48°33' W 122°45'10 9.7
2015-Feb-25 17:33N 48°43' W 122°45'9 8.7
2015-Feb-25 16:34N 48°52' W 122°46'0 0.2
2015-Feb-25 15:32N 48°52' W 122°46'  

Dump ship's entire track history